createdAt,value
2018-07-28T00:01:51.746Z,98963.80
2018-07-28T00:04:19.583Z,98967.27
2018-07-28T00:06:47.493Z,98972.22
2018-07-28T00:09:15.373Z,98963.67
2018-07-28T00:11:43.782Z,98956.81
2018-07-28T00:14:11.669Z,98964.20
2018-07-28T00:16:39.590Z,98965.59
2018-07-28T00:19:07.400Z,98967.95
2018-07-28T00:21:35.266Z,98970.45
2018-07-28T00:24:03.128Z,98971.48
2018-07-28T00:26:30.998Z,98978.88
2018-07-28T00:28:58.911Z,98985.73
2018-07-28T00:31:26.825Z,98988.45
2018-07-28T00:33:54.693Z,98983.53
2018-07-28T00:36:22.463Z,98987.36
2018-07-28T00:38:50.294Z,98984.04
2018-07-28T00:41:18.166Z,98986.21
2018-07-28T00:43:46.074Z,98981.25
2018-07-28T00:46:13.900Z,98977.97
2018-07-28T00:48:41.750Z,98977.40
2018-07-28T00:51:09.597Z,98982.63
2018-07-28T00:53:37.417Z,98979.24
2018-07-28T00:56:05.436Z,98978.41
2018-07-28T00:58:33.271Z,98980.39
2018-07-28T01:01:01.172Z,98980.11
2018-07-28T01:03:29.017Z,98981.97
2018-07-28T01:05:56.929Z,98967.33
2018-07-28T01:08:24.778Z,98968.41
2018-07-28T01:10:52.683Z,98967.42
2018-07-28T01:13:20.478Z,98959.88
2018-07-28T01:15:48.246Z,98970.31
2018-07-28T01:18:16.165Z,98966.44
2018-07-28T01:20:44.062Z,98966.59
2018-07-28T01:23:18.681Z,98957.23
2018-07-28T01:25:46.562Z,98958.11
2018-07-28T01:28:14.429Z,98956.23
2018-07-28T01:30:42.284Z,98961.89
2018-07-28T01:33:10.097Z,98961.34
2018-07-28T01:35:37.980Z,98956.25
2018-07-28T01:38:05.918Z,98960.39
2018-07-28T01:40:33.808Z,98951.34
2018-07-28T01:43:01.679Z,98953.53
2018-07-28T01:45:29.598Z,98956.50
2018-07-28T01:47:57.482Z,98956.77
2018-07-28T01:50:25.314Z,98955.58
2018-07-28T01:52:53.138Z,98955.87
2018-07-28T01:55:20.997Z,98955.77
2018-07-28T01:57:48.922Z,98963.71
2018-07-28T02:00:16.862Z,98950.23
2018-07-28T02:02:44.702Z,98960.38
2018-07-28T02:05:12.546Z,98958.17
2018-07-28T02:07:40.418Z,98955.97
2018-07-28T02:10:09.357Z,98958.93
2018-07-28T02:12:37.341Z,98955.94
2018-07-28T02:15:06.072Z,98948.09
2018-07-28T02:17:33.943Z,98950.35
2018-07-28T02:20:01.797Z,98949.70
2018-07-28T02:22:29.657Z,98949.38
2018-07-28T02:24:57.576Z,98956.17
2018-07-28T02:27:25.393Z,98959.65
2018-07-28T02:29:53.221Z,98952.03
2018-07-28T02:32:21.073Z,98959.69
2018-07-28T02:34:48.883Z,98958.86
2018-07-28T02:37:16.775Z,98957.52
2018-07-28T02:39:44.549Z,98964.91
2018-07-28T02:42:12.371Z,98969.70
2018-07-28T02:44:40.221Z,98962.80
2018-07-28T02:47:08.078Z,98967.61
2018-07-28T02:49:35.897Z,98961.44
2018-07-28T02:52:03.845Z,98958.63
2018-07-28T02:54:31.699Z,98957.52
2018-07-28T02:56:59.477Z,98965.14
2018-07-28T02:59:27.225Z,98963.27
2018-07-28T03:01:55.091Z,98966.54
2018-07-28T03:04:22.911Z,98966.09
2018-07-28T03:06:50.786Z,98967.92
2018-07-28T03:09:18.605Z,98972.95
2018-07-28T03:11:46.477Z,98960.06
2018-07-28T03:14:14.366Z,98969.56
2018-07-28T03:16:42.206Z,98962.58
2018-07-28T03:19:10.027Z,98959.00
2018-07-28T03:21:37.822Z,98965.33
2018-07-28T03:24:05.674Z,98959.61
2018-07-28T03:26:33.551Z,98961.12
2018-07-28T03:29:01.324Z,98961.06
2018-07-28T03:31:29.109Z,98959.98
2018-07-28T03:33:56.961Z,98961.74
2018-07-28T03:36:24.710Z,98968.97
2018-07-28T03:38:52.581Z,98964.63
2018-07-28T03:41:20.413Z,98963.80
2018-07-28T03:43:48.283Z,98967.38
2018-07-28T03:46:16.134Z,98960.38
2018-07-28T03:48:43.998Z,98962.02
2018-07-28T03:51:11.869Z,98970.38
2018-07-28T03:53:40.070Z,98971.05
2018-07-28T03:56:07.933Z,98973.41
2018-07-28T03:58:35.750Z,98973.13
2018-07-28T04:01:03.604Z,98968.64
2018-07-28T04:03:31.498Z,98971.16
2018-07-28T04:05:59.305Z,98973.59
2018-07-28T04:08:27.202Z,98977.53
2018-07-28T04:10:55.034Z,98979.13
2018-07-28T04:13:22.822Z,98981.27
2018-07-28T04:15:50.667Z,98980.44
2018-07-28T04:18:18.533Z,98983.96
2018-07-28T04:20:46.394Z,98981.94
2018-07-28T04:23:14.286Z,98981.71
2018-07-28T04:25:42.102Z,98981.44
2018-07-28T04:28:09.944Z,98981.67
2018-07-28T04:30:37.800Z,98988.92
2018-07-28T04:33:05.658Z,98987.08
2018-07-28T04:35:33.543Z,98990.11
2018-07-28T04:38:01.404Z,98990.75
2018-07-28T04:40:29.288Z,98991.36
2018-07-28T04:42:57.062Z,98988.34
2018-07-28T04:45:24.829Z,98985.81
2018-07-28T04:47:52.593Z,98986.29
2018-07-28T04:50:20.373Z,98987.31
2018-07-28T04:52:48.137Z,98993.39
2018-07-28T04:55:15.985Z,98996.31
2018-07-28T04:57:43.827Z,99000.70
2018-07-28T05:00:11.698Z,98999.47
2018-07-28T05:02:39.481Z,99003.59
2018-07-28T05:05:07.315Z,99005.16
2018-07-28T05:07:35.302Z,99011.63
2018-07-28T05:10:03.227Z,99018.81
2018-07-28T05:12:31.029Z,99012.22
2018-07-28T05:14:58.887Z,99014.42
2018-07-28T05:17:26.706Z,99012.03
2018-07-28T05:19:54.578Z,99010.10
2018-07-28T05:22:22.455Z,99011.14
2018-07-28T05:24:50.316Z,99013.19
2018-07-28T05:27:18.109Z,99006.86
2018-07-28T05:29:46.080Z,99010.23
2018-07-28T05:32:13.845Z,99009.71
2018-07-28T05:34:41.734Z,99009.08
2018-07-28T05:37:09.549Z,99008.70
2018-07-28T05:39:37.418Z,99007.97
2018-07-28T05:42:05.247Z,99014.86
2018-07-28T05:44:33.074Z,99018.78
2018-07-28T05:47:00.921Z,99016.00
2018-07-28T05:49:28.849Z,99017.86
2018-07-28T05:51:57.054Z,99021.50
2018-07-28T05:54:24.813Z,99030.98
2018-07-28T05:56:52.656Z,99027.67
2018-07-28T05:59:20.486Z,99023.34
2018-07-28T06:01:48.333Z,99027.11
2018-07-28T06:04:16.129Z,99022.92
2018-07-28T06:06:44.053Z,99016.36
2018-07-28T06:09:11.975Z,99020.77
2018-07-28T06:11:39.915Z,99022.89
2018-07-28T06:14:07.800Z,99017.84
2018-07-28T06:16:35.682Z,99022.85
2018-07-28T06:19:03.530Z,99017.48
2018-07-28T06:21:31.317Z,99022.34
2018-07-28T06:23:59.131Z,99020.55
2018-07-28T06:26:26.997Z,99022.62
2018-07-28T06:28:54.788Z,99016.84
2018-07-28T06:31:22.569Z,99015.20
2018-07-28T06:33:50.314Z,99020.96
2018-07-28T06:36:18.341Z,99022.47
2018-07-28T06:38:46.542Z,99026.30
2018-07-28T06:41:14.321Z,99024.41
2018-07-28T06:43:42.101Z,99019.78
2018-07-28T06:46:09.974Z,99010.06
2018-07-28T06:48:37.811Z,99022.66
2018-07-28T06:51:05.790Z,99023.27
2018-07-28T06:53:33.683Z,99025.89
2018-07-28T06:56:01.471Z,99020.08
2018-07-28T06:58:29.304Z,99018.94
2018-07-28T07:00:57.121Z,99014.32
2018-07-28T07:03:24.930Z,99016.06
2018-07-28T07:05:52.750Z,99018.06
2018-07-28T07:08:20.527Z,99018.45
2018-07-28T07:10:48.330Z,99029.65
2018-07-28T07:13:16.114Z,99032.50
2018-07-28T07:15:43.918Z,99030.48
2018-07-28T07:18:11.713Z,99028.77
2018-07-28T07:20:39.517Z,99034.95
2018-07-28T07:23:07.283Z,99038.81
2018-07-28T07:25:35.088Z,99032.02
2018-07-28T07:28:02.937Z,99026.49
2018-07-28T07:30:30.786Z,99030.28
2018-07-28T07:32:58.599Z,99021.42
2018-07-28T07:35:26.441Z,99026.83
2018-07-28T07:37:54.214Z,99028.64
2018-07-28T07:40:21.990Z,99034.16
2018-07-28T07:42:49.747Z,99022.70
2018-07-28T07:45:17.501Z,99025.28
2018-07-28T07:47:45.359Z,99022.11
2018-07-28T07:50:13.135Z,99021.77
2018-07-28T07:52:40.893Z,99029.84
2018-07-28T07:55:08.754Z,99040.55
2018-07-28T07:57:36.552Z,99035.96
2018-07-28T08:00:04.442Z,99032.02
2018-07-28T08:02:32.273Z,99026.87
2018-07-28T08:05:00.082Z,99027.72
2018-07-28T08:07:28.249Z,99026.60
2018-07-28T08:09:56.036Z,99024.09
2018-07-28T08:12:23.837Z,99019.45
2018-07-28T08:14:51.675Z,99013.85
2018-07-28T08:17:19.506Z,99018.37
2018-07-28T08:19:47.294Z,99017.42
2018-07-28T08:22:15.125Z,99019.50
2018-07-28T08:24:42.930Z,99021.59
2018-07-28T08:27:10.689Z,99024.46
2018-07-28T08:29:38.472Z,99030.38
2018-07-28T08:32:06.351Z,99027.30
2018-07-28T08:34:34.104Z,99028.56
2018-07-28T08:37:01.901Z,99027.57
2018-07-28T08:39:29.676Z,99021.75
2018-07-28T08:41:57.469Z,99020.69
2018-07-28T08:44:25.240Z,99017.81
2018-07-28T08:46:52.993Z,99001.80
2018-07-28T08:49:20.805Z,99006.44
2018-07-28T08:51:48.614Z,99001.36
2018-07-28T08:54:16.364Z,98993.81
2018-07-28T08:56:44.158Z,98988.20
2018-07-28T08:59:11.913Z,98983.80
2018-07-28T09:01:39.776Z,98980.09
2018-07-28T09:04:07.644Z,98976.61
2018-07-28T09:06:35.429Z,98971.70
2018-07-28T09:09:04.344Z,98979.94
2018-07-28T09:11:32.106Z,98987.50
2018-07-28T09:13:59.928Z,98981.86
2018-07-28T09:16:27.787Z,98979.83
2018-07-28T09:18:55.553Z,98989.23
2018-07-28T09:21:23.314Z,98985.50
2018-07-28T09:23:51.118Z,98982.86
2018-07-28T09:26:18.955Z,98965.67
2018-07-28T09:28:46.863Z,98971.15
2018-07-28T09:31:14.651Z,98975.28
2018-07-28T09:33:42.445Z,98966.70
2018-07-28T09:36:10.254Z,98966.34
2018-07-28T09:38:38.040Z,98964.55
2018-07-28T09:41:05.870Z,98962.66
2018-07-28T09:43:33.649Z,98960.19
2018-07-28T09:46:01.599Z,98966.19
2018-07-28T09:48:29.358Z,98973.98
2018-07-28T09:50:57.107Z,98970.58
2018-07-28T09:53:24.937Z,98966.94
2018-07-28T09:55:52.690Z,98967.30
2018-07-28T09:58:20.486Z,98960.13
2018-07-28T10:00:53.867Z,98955.20
2018-07-28T10:03:21.674Z,98972.73
2018-07-28T10:05:49.491Z,98956.72
2018-07-28T10:08:17.294Z,98957.16
2018-07-28T10:10:45.065Z,98955.02
2018-07-28T10:13:12.894Z,98955.08
2018-07-28T10:15:40.693Z,98948.31
2018-07-28T10:18:08.458Z,98948.70
2018-07-28T10:20:36.268Z,98942.61
2018-07-28T10:23:04.120Z,98942.81
2018-07-28T10:25:31.894Z,98936.48
2018-07-28T10:27:59.901Z,98929.55
2018-07-28T10:30:27.669Z,98933.02
2018-07-28T10:32:55.455Z,98933.04
2018-07-28T10:35:23.205Z,98937.61
2018-07-28T10:37:50.949Z,98940.53
2018-07-28T10:40:18.709Z,98940.91
2018-07-28T10:42:46.474Z,98941.91
2018-07-28T10:45:14.290Z,98928.84
2018-07-28T10:47:42.106Z,98921.61
2018-07-28T10:50:09.895Z,98914.23
2018-07-28T10:52:37.654Z,98912.11
2018-07-28T10:55:05.495Z,98906.70
2018-07-28T10:57:33.286Z,98908.20
2018-07-28T11:00:01.070Z,98912.88
2018-07-28T11:02:28.865Z,98910.67
2018-07-28T11:04:56.642Z,98915.55
2018-07-28T11:07:24.401Z,98911.64
2018-07-28T11:09:52.305Z,98903.30
2018-07-28T11:12:20.169Z,98904.95
2018-07-28T11:14:48.789Z,98896.46
2018-07-28T11:17:16.637Z,98894.34
2018-07-28T11:19:44.399Z,98893.82
2018-07-28T11:22:12.223Z,98891.74
2018-07-28T11:24:39.974Z,98883.27
2018-07-28T11:27:07.778Z,98873.54
2018-07-28T11:29:35.624Z,98867.34
2018-07-28T11:32:14.641Z,98858.27
2018-07-28T11:34:53.713Z,98870.84
2018-07-28T11:37:32.699Z,98866.03
2018-07-28T11:40:11.618Z,98864.98
2018-07-28T11:42:50.481Z,98862.80
2018-07-28T11:45:18.754Z,98851.06
2018-07-28T11:47:46.569Z,98850.37
2018-07-28T11:50:14.426Z,98853.83
2018-07-28T11:52:42.455Z,98847.73
2018-07-28T11:55:10.323Z,98842.86
2018-07-28T11:57:38.143Z,98855.86
2018-07-28T12:00:07.555Z,98847.95
2018-07-28T12:02:35.330Z,98844.61
2018-07-28T12:05:03.208Z,98855.70
2018-07-28T12:07:31.036Z,98849.39
2018-07-28T12:09:58.854Z,98838.05
2018-07-28T12:12:26.690Z,98836.09
2018-07-28T12:14:54.463Z,98848.43
2018-07-28T12:17:22.251Z,98847.67
2018-07-28T12:19:50.083Z,98841.73
2018-07-28T12:22:17.893Z,98829.61
2018-07-28T12:24:45.721Z,98828.19
2018-07-28T12:27:13.553Z,98825.98
2018-07-28T12:29:41.372Z,98825.65
2018-07-28T12:32:09.458Z,98819.32
2018-07-28T12:34:37.360Z,98824.33
2018-07-28T12:37:05.321Z,98822.06
2018-07-28T12:39:33.166Z,98821.51
2018-07-28T12:42:01.067Z,98815.16
2018-07-28T12:44:28.952Z,98827.73
2018-07-28T12:46:56.725Z,98827.20
2018-07-28T12:49:24.638Z,98827.45
2018-07-28T12:51:52.482Z,98824.94
2018-07-28T12:54:20.321Z,98811.12
2018-07-28T12:56:48.218Z,98819.44
2018-07-28T12:59:16.064Z,98817.94
2018-07-28T13:01:43.986Z,98807.16
2018-07-28T13:04:11.845Z,98805.94
2018-07-28T13:06:39.689Z,98799.55
2018-07-28T13:09:09.303Z,98807.38
2018-07-28T13:11:37.126Z,98807.46
2018-07-28T13:14:05.051Z,98806.02
2018-07-28T13:16:33.021Z,98807.88
2018-07-28T13:19:00.874Z,98807.08
2018-07-28T13:21:28.712Z,98812.09
2018-07-28T13:23:56.629Z,98812.38
2018-07-28T13:26:24.541Z,98813.89
2018-07-28T13:28:52.386Z,98814.72
2018-07-28T13:31:20.225Z,98816.88
2018-07-28T13:33:48.353Z,98827.52
2018-07-28T13:36:16.176Z,98832.39
2018-07-28T13:38:44.026Z,98829.86
2018-07-28T13:41:11.902Z,98823.16
2018-07-28T13:43:39.823Z,98817.14
2018-07-28T13:46:07.636Z,98818.84
2018-07-28T13:48:35.505Z,98827.88
2018-07-28T13:51:03.412Z,98831.38
2018-07-28T13:53:31.341Z,98826.17
2018-07-28T13:55:59.575Z,98819.30
2018-07-28T13:58:27.390Z,98825.87
2018-07-28T14:00:55.207Z,98825.94
2018-07-28T14:03:23.713Z,98840.70
2018-07-28T14:05:51.514Z,98838.73
2018-07-28T14:08:19.302Z,98833.98
2018-07-28T14:10:47.118Z,98843.61
2018-07-28T14:13:14.897Z,98830.88
2018-07-28T14:15:42.695Z,98833.98
2018-07-28T14:18:10.555Z,98836.25
2018-07-28T14:20:38.350Z,98835.47
2018-07-28T14:23:06.179Z,98838.66
2018-07-28T14:25:34.014Z,98841.34
2018-07-28T14:28:01.801Z,98845.70
2018-07-28T14:30:29.652Z,98836.14
2018-07-28T14:32:57.442Z,98843.31
2018-07-28T14:35:25.297Z,98846.58
2018-07-28T14:37:53.126Z,98843.88
2018-07-28T14:40:20.935Z,98838.38
2018-07-28T14:42:48.729Z,98843.39
2018-07-28T14:45:16.549Z,98842.16
2018-07-28T14:47:44.362Z,98838.89
2018-07-28T14:50:12.299Z,98834.94
2018-07-28T14:52:40.092Z,98828.20
2018-07-28T14:55:07.952Z,98822.96
2018-07-28T14:57:35.738Z,98815.94
2018-07-28T15:00:03.610Z,98822.84
2018-07-28T15:02:31.403Z,98826.95
2018-07-28T15:04:59.215Z,98830.98
2018-07-28T15:07:27.098Z,98839.67
2018-07-28T15:09:54.879Z,98829.53
2018-07-28T15:12:22.680Z,98828.43
2018-07-28T15:14:50.565Z,98828.58
2018-07-28T15:17:18.369Z,98827.41
2018-07-28T15:19:46.192Z,98826.13
2018-07-28T15:22:14.024Z,98828.89
2018-07-28T15:24:41.805Z,98831.41
2018-07-28T15:27:09.608Z,98832.86
2018-07-28T15:29:37.459Z,98828.17
2018-07-28T15:32:05.380Z,98822.13
2018-07-28T15:34:33.169Z,98822.00
2018-07-28T15:37:00.997Z,98812.23
2018-07-28T15:39:28.767Z,98819.37
2018-07-28T15:41:56.590Z,98821.22
2018-07-28T15:44:26.118Z,98818.56
2018-07-28T15:46:53.898Z,98809.83
2018-07-28T15:49:21.662Z,98812.64
2018-07-28T15:51:49.469Z,98810.41
2018-07-28T15:54:17.258Z,98804.11
2018-07-28T15:56:45.086Z,98801.44
2018-07-28T15:59:12.921Z,98796.47
2018-07-28T16:01:40.776Z,98793.59
2018-07-28T16:04:08.553Z,98795.78
2018-07-28T16:06:36.374Z,98803.03
2018-07-28T16:09:07.013Z,98808.08
2018-07-28T16:11:34.840Z,98800.16
2018-07-28T16:14:02.681Z,98802.01
2018-07-28T16:16:30.703Z,98803.79
2018-07-28T16:18:58.536Z,98808.34
2018-07-28T16:21:26.375Z,98819.32
2018-07-28T16:23:54.249Z,98818.75
2018-07-28T16:26:22.049Z,98824.23
2018-07-28T16:28:49.891Z,98828.54
2018-07-28T16:31:17.689Z,98833.08
2018-07-28T16:33:45.485Z,98841.05
2018-07-28T16:36:13.289Z,98839.46
2018-07-28T16:38:41.098Z,98839.49
2018-07-28T16:41:08.979Z,98841.67
2018-07-28T16:43:36.824Z,98843.45
2018-07-28T16:46:05.067Z,98847.39
2018-07-28T16:48:32.846Z,98844.09
2018-07-28T16:51:00.697Z,98847.27
2018-07-28T16:53:28.518Z,98842.00
2018-07-28T16:55:56.323Z,98845.88
2018-07-28T16:58:24.156Z,98853.25
2018-07-28T17:00:51.972Z,98862.96
2018-07-28T17:03:19.998Z,98862.66
2018-07-28T17:05:47.929Z,98862.66
2018-07-28T17:08:15.746Z,98871.86
2018-07-28T17:10:43.657Z,98873.10
2018-07-28T17:13:11.490Z,98870.32
2018-07-28T17:15:39.380Z,98875.53
2018-07-28T17:18:07.227Z,98878.34
2018-07-28T17:20:35.053Z,98879.16
2018-07-28T17:23:02.886Z,98882.83
2018-07-28T17:25:30.741Z,98889.78
2018-07-28T17:27:58.582Z,98880.48
2018-07-28T17:30:26.374Z,98882.16
2018-07-28T17:32:54.173Z,98885.91
2018-07-28T17:35:21.953Z,98896.02
2018-07-28T17:37:49.749Z,98900.00
2018-07-28T17:40:17.588Z,98897.09
2018-07-28T17:42:45.353Z,98903.35
2018-07-28T17:45:13.148Z,98905.08
2018-07-28T17:47:41.001Z,98895.46
2018-07-28T17:50:08.892Z,98902.31
2018-07-28T17:52:36.860Z,98903.84
2018-07-28T17:55:04.721Z,98904.03
2018-07-28T17:57:32.553Z,98900.17
2018-07-28T18:00:00.435Z,98906.68
2018-07-28T18:02:28.241Z,98902.85
2018-07-28T18:04:56.125Z,98902.33
2018-07-28T18:07:23.951Z,98904.97
2018-07-28T18:09:51.842Z,98905.34
2018-07-28T18:12:19.733Z,98911.67
2018-07-28T18:14:47.595Z,98912.92
2018-07-28T18:17:15.483Z,98914.98
2018-07-28T18:19:43.267Z,98916.06
2018-07-28T18:22:11.927Z,98926.44
2018-07-28T18:24:39.832Z,98924.82
2018-07-28T18:27:07.914Z,98936.28
2018-07-28T18:29:35.792Z,98942.81
2018-07-28T18:32:03.626Z,98950.85
2018-07-28T18:34:31.783Z,98942.55
2018-07-28T18:36:59.593Z,98955.50
2018-07-28T18:39:27.450Z,98941.75
2018-07-28T18:41:55.337Z,98949.61
2018-07-28T18:44:23.169Z,98942.57
2018-07-28T18:46:50.968Z,98956.89
2018-07-28T18:49:18.777Z,98959.89
2018-07-28T18:51:46.535Z,98961.27
2018-07-28T18:54:14.519Z,98959.29
2018-07-28T18:56:42.345Z,98957.89
2018-07-28T18:59:10.095Z,98955.84
2018-07-28T19:01:37.972Z,98948.87
2018-07-28T19:04:06.220Z,98952.72
2018-07-28T19:06:34.076Z,98947.76
2018-07-28T19:09:07.308Z,98948.98
2018-07-28T19:11:35.153Z,98948.00
2018-07-28T19:14:08.349Z,98952.10
2018-07-28T19:16:36.193Z,98946.33
2018-07-28T19:19:09.493Z,98949.12
2018-07-28T19:21:37.328Z,98951.02
2018-07-28T19:24:05.206Z,98942.02
2018-07-28T19:26:33.061Z,98943.98
2018-07-28T19:29:06.320Z,98938.40
2018-07-28T19:31:34.138Z,98944.22
2018-07-28T19:34:01.961Z,98943.75
2018-07-28T19:36:35.249Z,98942.56
2018-07-28T19:39:03.923Z,98940.99
2018-07-28T19:41:36.225Z,98947.61
2018-07-28T19:44:04.126Z,98943.63
2018-07-28T19:46:31.946Z,98944.05
2018-07-28T19:48:59.726Z,98947.19
2018-07-28T19:51:27.574Z,98940.94
2018-07-28T19:53:55.427Z,98943.29
2018-07-28T19:56:23.236Z,98937.27
2018-07-28T19:58:51.081Z,98932.67
2018-07-28T20:01:18.897Z,98938.73
2018-07-28T20:03:46.725Z,98939.38
2018-07-28T20:06:14.530Z,98940.59
2018-07-28T20:08:42.291Z,98948.98
2018-07-28T20:11:10.053Z,98946.41
2018-07-28T20:13:37.930Z,98946.32
2018-07-28T20:16:05.804Z,98946.49
2018-07-28T20:18:33.706Z,98941.23
2018-07-28T20:21:01.604Z,98941.58
2018-07-28T20:23:29.456Z,98941.44
2018-07-28T20:25:57.348Z,98946.78
2018-07-28T20:28:25.308Z,98953.97
2018-07-28T20:30:53.124Z,98951.60
2018-07-28T20:33:21.173Z,98956.15
2018-07-28T20:35:49.096Z,98957.45
2018-07-28T20:38:17.111Z,98964.86
2018-07-28T20:40:45.056Z,98959.45
2018-07-28T20:43:13.172Z,98958.23
2018-07-28T20:45:41.020Z,98963.61
2018-07-28T20:48:08.846Z,98960.54
2018-07-28T20:50:36.680Z,98966.02
2018-07-28T20:53:04.620Z,98962.38
2018-07-28T20:55:32.469Z,98965.81
2018-07-28T20:58:00.290Z,98965.78
2018-07-28T21:00:28.122Z,98971.87
2018-07-28T21:02:55.935Z,98967.91
2018-07-28T21:05:23.796Z,98970.08
2018-07-28T21:07:51.628Z,98971.63
2018-07-28T21:10:19.445Z,98963.78
2018-07-28T21:12:47.253Z,98965.36
2018-07-28T21:15:15.053Z,98968.59
2018-07-28T21:17:42.863Z,98961.19
2018-07-28T21:20:10.691Z,98954.38
2018-07-28T21:22:38.612Z,98960.39
2018-07-28T21:25:06.439Z,98953.53
2018-07-28T21:27:34.234Z,98941.43
2018-07-28T21:30:02.051Z,98938.34
2018-07-28T21:32:29.853Z,98936.00
2018-07-28T21:34:57.661Z,98938.65
2018-07-28T21:37:25.441Z,98937.79
2018-07-28T21:39:53.293Z,98937.89
2018-07-28T21:42:21.063Z,98936.61
2018-07-28T21:44:48.849Z,98934.20
2018-07-28T21:47:16.614Z,98931.75
2018-07-28T21:49:44.369Z,98922.27
2018-07-28T21:52:12.175Z,98927.63
2018-07-28T21:54:39.975Z,98924.86
2018-07-28T21:57:07.754Z,98923.39
2018-07-28T21:59:35.528Z,98918.84
2018-07-28T22:02:03.410Z,98915.89
2018-07-28T22:04:33.543Z,98909.40
2018-07-28T22:07:01.311Z,98905.44
2018-07-28T22:09:29.065Z,98913.03
2018-07-28T22:11:56.865Z,98911.73
2018-07-28T22:14:24.649Z,98903.97
2018-07-28T22:16:52.435Z,98906.77
2018-07-28T22:19:20.189Z,98906.41
2018-07-28T22:21:48.001Z,98901.34
2018-07-28T22:24:15.824Z,98902.94
2018-07-28T22:26:43.943Z,98896.64
2018-07-28T22:29:11.721Z,98902.97
2018-07-28T22:31:39.773Z,98900.28
2018-07-28T22:34:07.950Z,98903.80
2018-07-28T22:36:35.814Z,98906.20
2018-07-28T22:39:05.068Z,98904.86
2018-07-28T22:41:32.828Z,98903.20
2018-07-28T22:44:00.597Z,98914.09
2018-07-28T22:46:28.401Z,98915.92
2018-07-28T22:48:56.217Z,98911.82
2018-07-28T22:51:23.969Z,98919.37
2018-07-28T22:53:51.736Z,98921.36
2018-07-28T22:56:19.509Z,98921.27
2018-07-28T22:58:47.265Z,98926.41
2018-07-28T23:01:15.124Z,98919.77
2018-07-28T23:03:42.877Z,98922.64
2018-07-28T23:06:10.637Z,98915.67
2018-07-28T23:08:38.427Z,98916.75
2018-07-28T23:11:06.257Z,98921.88
2018-07-28T23:13:34.048Z,98926.61
2018-07-28T23:16:01.841Z,98920.95
2018-07-28T23:18:29.589Z,98917.19
2018-07-28T23:20:57.385Z,98928.59
2018-07-28T23:23:25.167Z,98926.11
2018-07-28T23:25:52.988Z,98926.01
2018-07-28T23:28:20.905Z,98935.31
2018-07-28T23:30:48.702Z,98929.90
2018-07-28T23:33:16.479Z,98921.25
2018-07-28T23:35:44.253Z,98926.14
2018-07-28T23:38:12.077Z,98930.31
2018-07-28T23:40:39.825Z,98930.23
2018-07-28T23:43:07.602Z,98920.91
2018-07-28T23:45:35.371Z,98924.73
2018-07-28T23:48:03.207Z,98920.08
2018-07-28T23:50:36.638Z,98919.22
2018-07-28T23:53:04.515Z,98920.60
2018-07-28T23:55:32.306Z,98923.29
2018-07-28T23:58:00.109Z,98933.24
